sensor_id;sensor_type;location;lat;lon;timestamp;P1;durP1;ratioP1;P2;durP2;ratioP2
74867;SDS011;63419;42.262;12.210;2023-07-31T00:02:09;5.88;;;1.77;;
74867;SDS011;63419;42.262;12.210;2023-07-31T00:04:35;6.03;;;2.10;;
74867;SDS011;63419;42.262;12.210;2023-07-31T00:07:02;5.35;;;1.83;;
74867;SDS011;63419;42.262;12.210;2023-07-31T00:09:29;6.28;;;1.88;;
74867;SDS011;63419;42.262;12.210;2023-07-31T00:11:55;5.43;;;1.95;;
74867;SDS011;63419;42.262;12.210;2023-07-31T00:14:21;8.10;;;2.40;;
74867;SDS011;63419;42.262;12.210;2023-07-31T00:16:47;8.05;;;2.35;;
74867;SDS011;63419;42.262;12.210;2023-07-31T00:19:13;7.72;;;2.13;;
74867;SDS011;63419;42.262;12.210;2023-07-31T00:21:40;7.13;;;2.10;;
74867;SDS011;63419;42.262;12.210;2023-07-31T00:24:06;7.25;;;2.17;;
74867;SDS011;63419;42.262;12.210;2023-07-31T00:26:32;6.72;;;2.20;;
74867;SDS011;63419;42.262;12.210;2023-07-31T00:28:58;7.82;;;2.17;;
74867;SDS011;63419;42.262;12.210;2023-07-31T00:31:24;7.72;;;2.13;;
74867;SDS011;63419;42.262;12.210;2023-07-31T00:33:50;9.57;;;2.40;;
74867;SDS011;63419;42.262;12.210;2023-07-31T00:36:16;9.63;;;2.42;;
74867;SDS011;63419;42.262;12.210;2023-07-31T00:38:43;8.68;;;2.03;;
74867;SDS011;63419;42.262;12.210;2023-07-31T00:41:09;7.00;;;2.25;;
74867;SDS011;63419;42.262;12.210;2023-07-31T00:43:35;5.82;;;2.50;;
74867;SDS011;63419;42.262;12.210;2023-07-31T00:46:01;12.05;;;2.78;;
74867;SDS011;63419;42.262;12.210;2023-07-31T00:48:27;6.05;;;2.50;;
74867;SDS011;63419;42.262;12.210;2023-07-31T00:50:54;6.40;;;2.33;;
74867;SDS011;63419;42.262;12.210;2023-07-31T00:53:20;6.22;;;2.20;;
74867;SDS011;63419;42.262;12.210;2023-07-31T00:55:46;8.05;;;3.00;;
74867;SDS011;63419;42.262;12.210;2023-07-31T00:58:13;10.00;;;2.60;;
74867;SDS011;63419;42.262;12.210;2023-07-31T01:00:39;8.35;;;2.33;;
74867;SDS011;63419;42.262;12.210;2023-07-31T01:03:05;8.43;;;2.10;;
74867;SDS011;63419;42.262;12.210;2023-07-31T01:05:39;8.02;;;2.85;;
74867;SDS011;63419;42.262;12.210;2023-07-31T01:08:33;8.07;;;2.40;;
74867;SDS011;63419;42.262;12.210;2023-07-31T01:13:52;5.75;;;2.13;;
74867;SDS011;63419;42.262;12.210;2023-07-31T01:16:20;7.50;;;2.50;;
74867;SDS011;63419;42.262;12.210;2023-07-31T01:18:47;6.20;;;2.22;;
74867;SDS011;63419;42.262;12.210;2023-07-31T01:24:19;8.50;;;2.67;;
74867;SDS011;63419;42.262;12.210;2023-07-31T01:27:15;6.28;;;2.50;;
74867;SDS011;63419;42.262;12.210;2023-07-31T01:29:56;7.50;;;2.17;;
74867;SDS011;63419;42.262;12.210;2023-07-31T01:32:36;9.20;;;2.58;;
74867;SDS011;63419;42.262;12.210;2023-07-31T01:35:07;9.02;;;2.50;;
74867;SDS011;63419;42.262;12.210;2023-07-31T01:37:34;8.07;;;2.53;;
74867;SDS011;63419;42.262;12.210;2023-07-31T01:40:00;7.57;;;2.65;;
74867;SDS011;63419;42.262;12.210;2023-07-31T01:42:26;9.32;;;2.90;;
74867;SDS011;63419;42.262;12.210;2023-07-31T01:44:53;7.63;;;2.67;;
74867;SDS011;63419;42.262;12.210;2023-07-31T01:47:19;9.32;;;2.47;;
74867;SDS011;63419;42.262;12.210;2023-07-31T01:49:45;7.18;;;2.85;;
74867;SDS011;63419;42.262;12.210;2023-07-31T01:52:11;7.25;;;2.88;;
74867;SDS011;63419;42.262;12.210;2023-07-31T01:54:37;6.20;;;2.60;;
74867;SDS011;63419;42.262;12.210;2023-07-31T01:57:03;7.28;;;2.63;;
74867;SDS011;63419;42.262;12.210;2023-07-31T01:59:29;11.32;;;2.47;;
74867;SDS011;63419;42.262;12.210;2023-07-31T02:01:55;7.43;;;3.60;;
74867;SDS011;63419;42.262;12.210;2023-07-31T02:04:21;7.40;;;2.50;;
74867;SDS011;63419;42.262;12.210;2023-07-31T02:06:47;6.32;;;2.35;;
74867;SDS011;63419;42.262;12.210;2023-07-31T02:09:13;10.65;;;3.53;;
74867;SDS011;63419;42.262;12.210;2023-07-31T02:11:39;8.00;;;2.63;;
74867;SDS011;63419;42.262;12.210;2023-07-31T02:14:05;6.50;;;2.25;;
74867;SDS011;63419;42.262;12.210;2023-07-31T02:16:32;7.20;;;2.63;;
74867;SDS011;63419;42.262;12.210;2023-07-31T02:18:58;7.15;;;2.50;;
74867;SDS011;63419;42.262;12.210;2023-07-31T02:21:24;9.52;;;2.90;;
74867;SDS011;63419;42.262;12.210;2023-07-31T02:23:50;8.38;;;2.55;;
74867;SDS011;63419;42.262;12.210;2023-07-31T02:26:16;9.48;;;2.72;;
74867;SDS011;63419;42.262;12.210;2023-07-31T02:28:42;6.47;;;2.55;;
74867;SDS011;63419;42.262;12.210;2023-07-31T02:31:08;7.30;;;2.42;;
74867;SDS011;63419;42.262;12.210;2023-07-31T02:33:35;8.38;;;2.22;;
74867;SDS011;63419;42.262;12.210;2023-07-31T02:36:01;7.00;;;2.28;;
74867;SDS011;63419;42.262;12.210;2023-07-31T02:38:28;5.32;;;2.13;;
74867;SDS011;63419;42.262;12.210;2023-07-31T02:40:54;7.53;;;2.47;;
74867;SDS011;63419;42.262;12.210;2023-07-31T02:43:20;5.68;;;2.28;;
74867;SDS011;63419;42.262;12.210;2023-07-31T02:45:50;9.23;;;2.10;;
74867;SDS011;63419;42.262;12.210;2023-07-31T02:48:19;9.25;;;2.20;;
74867;SDS011;63419;42.262;12.210;2023-07-31T02:50:45;7.90;;;2.03;;
74867;SDS011;63419;42.262;12.210;2023-07-31T02:53:13;8.18;;;2.67;;
74867;SDS011;63419;42.262;12.210;2023-07-31T02:55:39;7.25;;;2.00;;
74867;SDS011;63419;42.262;12.210;2023-07-31T02:58:06;7.45;;;2.33;;
74867;SDS011;63419;42.262;12.210;2023-07-31T03:00:32;5.85;;;2.17;;
74867;SDS011;63419;42.262;12.210;2023-07-31T03:02:58;9.32;;;2.35;;
74867;SDS011;63419;42.262;12.210;2023-07-31T03:05:24;7.97;;;2.20;;
74867;SDS011;63419;42.262;12.210;2023-07-31T03:07:50;6.45;;;2.00;;
74867;SDS011;63419;42.262;12.210;2023-07-31T03:10:17;6.40;;;1.90;;
74867;SDS011;63419;42.262;12.210;2023-07-31T03:12:46;6.65;;;1.80;;
74867;SDS011;63419;42.262;12.210;2023-07-31T03:15:13;4.88;;;1.92;;
74867;SDS011;63419;42.262;12.210;2023-07-31T03:17:40;7.22;;;1.52;;
74867;SDS011;63419;42.262;12.210;2023-07-31T03:20:06;6.82;;;1.70;;
74867;SDS011;63419;42.262;12.210;2023-07-31T03:22:33;5.03;;;1.63;;
74867;SDS011;63419;42.262;12.210;2023-07-31T03:27:28;4.88;;;1.23;;
74867;SDS011;63419;42.262;12.210;2023-07-31T03:29:54;4.68;;;1.20;;
74867;SDS011;63419;42.262;12.210;2023-07-31T03:32:20;5.18;;;1.42;;
74867;SDS011;63419;42.262;12.210;2023-07-31T03:34:46;3.97;;;1.15;;
74867;SDS011;63419;42.262;12.210;2023-07-31T03:37:12;4.30;;;1.35;;
74867;SDS011;63419;42.262;12.210;2023-07-31T03:39:39;4.45;;;1.60;;
74867;SDS011;63419;42.262;12.210;2023-07-31T03:42:05;4.43;;;1.13;;
74867;SDS011;63419;42.262;12.210;2023-07-31T03:44:31;6.57;;;1.35;;
74867;SDS011;63419;42.262;12.210;2023-07-31T03:46:57;4.72;;;1.05;;
74867;SDS011;63419;42.262;12.210;2023-07-31T03:49:24;5.20;;;1.10;;
74867;SDS011;63419;42.262;12.210;2023-07-31T03:51:50;5.18;;;1.20;;
74867;SDS011;63419;42.262;12.210;2023-07-31T03:54:16;5.53;;;1.10;;
74867;SDS011;63419;42.262;12.210;2023-07-31T03:56:43;4.53;;;1.23;;
74867;SDS011;63419;42.262;12.210;2023-07-31T03:59:08;5.93;;;1.02;;
74867;SDS011;63419;42.262;12.210;2023-07-31T04:01:35;6.65;;;1.30;;
74867;SDS011;63419;42.262;12.210;2023-07-31T04:04:00;3.92;;;0.98;;
74867;SDS011;63419;42.262;12.210;2023-07-31T04:06:27;3.90;;;1.08;;
74867;SDS011;63419;42.262;12.210;2023-07-31T04:08:53;5.30;;;1.33;;
74867;SDS011;63419;42.262;12.210;2023-07-31T04:11:20;7.43;;;1.95;;
74867;SDS011;63419;42.262;12.210;2023-07-31T04:13:46;5.72;;;1.05;;
74867;SDS011;63419;42.262;12.210;2023-07-31T04:16:12;4.40;;;1.13;;
74867;SDS011;63419;42.262;12.210;2023-07-31T04:18:38;4.53;;;1.30;;
74867;SDS011;63419;42.262;12.210;2023-07-31T04:21:05;5.68;;;1.52;;
74867;SDS011;63419;42.262;12.210;2023-07-31T04:23:31;5.28;;;1.40;;
74867;SDS011;63419;42.262;12.210;2023-07-31T04:25:57;4.18;;;1.27;;
74867;SDS011;63419;42.262;12.210;2023-07-31T04:28:23;9.43;;;1.83;;
74867;SDS011;63419;42.262;12.210;2023-07-31T04:30:54;7.78;;;1.13;;
74867;SDS011;63419;42.262;12.210;2023-07-31T04:33:20;7.07;;;1.60;;
74867;SDS011;63419;42.262;12.210;2023-07-31T04:35:50;7.47;;;1.30;;
74867;SDS011;63419;42.262;12.210;2023-07-31T04:38:18;6.57;;;1.13;;
74867;SDS011;63419;42.262;12.210;2023-07-31T04:40:47;5.40;;;1.17;;
74867;SDS011;63419;42.262;12.210;2023-07-31T04:43:14;4.40;;;1.30;;
74867;SDS011;63419;42.262;12.210;2023-07-31T04:45:42;5.00;;;1.00;;
74867;SDS011;63419;42.262;12.210;2023-07-31T04:48:12;4.50;;;1.02;;
74867;SDS011;63419;42.262;12.210;2023-07-31T04:50:39;4.97;;;1.13;;
74867;SDS011;63419;42.262;12.210;2023-07-31T04:53:05;5.70;;;1.35;;
74867;SDS011;63419;42.262;12.210;2023-07-31T04:55:32;5.60;;;1.25;;
74867;SDS011;63419;42.262;12.210;2023-07-31T04:57:58;4.80;;;0.90;;
74867;SDS011;63419;42.262;12.210;2023-07-31T05:07:42;4.60;;;1.27;;
74867;SDS011;63419;42.262;12.210;2023-07-31T05:10:09;4.35;;;1.10;;
74867;SDS011;63419;42.262;12.210;2023-07-31T05:12:35;5.43;;;0.90;;
74867;SDS011;63419;42.262;12.210;2023-07-31T05:15:01;4.68;;;1.15;;
74867;SDS011;63419;42.262;12.210;2023-07-31T05:17:28;5.72;;;1.10;;
74867;SDS011;63419;42.262;12.210;2023-07-31T05:19:54;9.77;;;0.95;;
74867;SDS011;63419;42.262;12.210;2023-07-31T05:22:20;6.47;;;1.30;;
74867;SDS011;63419;42.262;12.210;2023-07-31T05:24:46;4.50;;;1.00;;
74867;SDS011;63419;42.262;12.210;2023-07-31T05:27:13;4.75;;;1.20;;
74867;SDS011;63419;42.262;12.210;2023-07-31T05:29:43;8.70;;;1.40;;
74867;SDS011;63419;42.262;12.210;2023-07-31T05:32:10;4.75;;;1.27;;
74867;SDS011;63419;42.262;12.210;2023-07-31T05:34:36;3.80;;;0.80;;
74867;SDS011;63419;42.262;12.210;2023-07-31T05:37:02;4.57;;;1.00;;
74867;SDS011;63419;42.262;12.210;2023-07-31T05:39:28;3.67;;;0.95;;
74867;SDS011;63419;42.262;12.210;2023-07-31T05:41:54;5.40;;;0.90;;
74867;SDS011;63419;42.262;12.210;2023-07-31T05:44:20;5.03;;;1.20;;
74867;SDS011;63419;42.262;12.210;2023-07-31T05:46:47;5.75;;;0.80;;
74867;SDS011;63419;42.262;12.210;2023-07-31T05:49:13;5.88;;;0.90;;
74867;SDS011;63419;42.262;12.210;2023-07-31T05:51:39;9.75;;;1.33;;
74867;SDS011;63419;42.262;12.210;2023-07-31T05:54:05;3.88;;;1.10;;
74867;SDS011;63419;42.262;12.210;2023-07-31T05:56:31;5.97;;;0.82;;
74867;SDS011;63419;42.262;12.210;2023-07-31T05:58:59;3.45;;;1.00;;
74867;SDS011;63419;42.262;12.210;2023-07-31T06:01:25;6.78;;;1.08;;
74867;SDS011;63419;42.262;12.210;2023-07-31T06:03:52;7.63;;;1.20;;
74867;SDS011;63419;42.262;12.210;2023-07-31T06:06:18;4.90;;;1.08;;
74867;SDS011;63419;42.262;12.210;2023-07-31T06:08:45;4.85;;;1.05;;
74867;SDS011;63419;42.262;12.210;2023-07-31T06:11:11;7.78;;;0.90;;
74867;SDS011;63419;42.262;12.210;2023-07-31T06:16:04;7.93;;;0.98;;
74867;SDS011;63419;42.262;12.210;2023-07-31T06:20:58;5.40;;;1.10;;
74867;SDS011;63419;42.262;12.210;2023-07-31T06:23:25;5.50;;;0.90;;
74867;SDS011;63419;42.262;12.210;2023-07-31T06:25:51;3.80;;;1.10;;
74867;SDS011;63419;42.262;12.210;2023-07-31T06:28:17;5.18;;;1.25;;
74867;SDS011;63419;42.262;12.210;2023-07-31T06:30:44;5.75;;;1.10;;
74867;SDS011;63419;42.262;12.210;2023-07-31T06:33:11;8.50;;;1.30;;
74867;SDS011;63419;42.262;12.210;2023-07-31T06:35:37;7.43;;;1.17;;
74867;SDS011;63419;42.262;12.210;2023-07-31T06:38:03;5.70;;;1.20;;
74867;SDS011;63419;42.262;12.210;2023-07-31T06:40:29;6.53;;;1.27;;
74867;SDS011;63419;42.262;12.210;2023-07-31T06:42:59;4.65;;;0.90;;
74867;SDS011;63419;42.262;12.210;2023-07-31T06:45:33;5.40;;;0.98;;
74867;SDS011;63419;42.262;12.210;2023-07-31T06:48:01;5.43;;;1.00;;
74867;SDS011;63419;42.262;12.210;2023-07-31T06:50:29;4.93;;;1.05;;
74867;SDS011;63419;42.262;12.210;2023-07-31T06:52:57;5.65;;;0.80;;
74867;SDS011;63419;42.262;12.210;2023-07-31T06:55:24;4.18;;;1.00;;
74867;SDS011;63419;42.262;12.210;2023-07-31T06:57:52;4.68;;;1.00;;
74867;SDS011;63419;42.262;12.210;2023-07-31T07:00:21;7.35;;;1.23;;
74867;SDS011;63419;42.262;12.210;2023-07-31T07:02:49;3.47;;;0.90;;
74867;SDS011;63419;42.262;12.210;2023-07-31T07:05:16;8.63;;;1.23;;
74867;SDS011;63419;42.262;12.210;2023-07-31T07:07:44;4.07;;;1.17;;
74867;SDS011;63419;42.262;12.210;2023-07-31T07:12:37;4.22;;;1.00;;
74867;SDS011;63419;42.262;12.210;2023-07-31T07:15:03;7.25;;;0.93;;
74867;SDS011;63419;42.262;12.210;2023-07-31T07:17:30;4.43;;;0.98;;
74867;SDS011;63419;42.262;12.210;2023-07-31T07:19:57;4.88;;;1.10;;
74867;SDS011;63419;42.262;12.210;2023-07-31T07:22:25;4.72;;;1.05;;
74867;SDS011;63419;42.262;12.210;2023-07-31T07:24:52;4.57;;;1.00;;
74867;SDS011;63419;42.262;12.210;2023-07-31T07:27:19;4.25;;;1.13;;
74867;SDS011;63419;42.262;12.210;2023-07-31T07:29:46;5.43;;;1.15;;
74867;SDS011;63419;42.262;12.210;2023-07-31T07:32:15;9.38;;;1.25;;
74867;SDS011;63419;42.262;12.210;2023-07-31T07:34:42;4.80;;;1.10;;
74867;SDS011;63419;42.262;12.210;2023-07-31T07:39:35;7.55;;;1.42;;
74867;SDS011;63419;42.262;12.210;2023-07-31T07:42:02;8.05;;;1.35;;
74867;SDS011;63419;42.262;12.210;2023-07-31T07:44:29;7.22;;;1.08;;
74867;SDS011;63419;42.262;12.210;2023-07-31T07:46:55;7.60;;;1.50;;
74867;SDS011;63419;42.262;12.210;2023-07-31T07:49:22;5.45;;;1.15;;
74867;SDS011;63419;42.262;12.210;2023-07-31T07:51:48;5.35;;;1.10;;
74867;SDS011;63419;42.262;12.210;2023-07-31T07:54:15;7.97;;;1.15;;
74867;SDS011;63419;42.262;12.210;2023-07-31T07:56:42;5.20;;;1.23;;
74867;SDS011;63419;42.262;12.210;2023-07-31T07:59:09;5.35;;;1.20;;
74867;SDS011;63419;42.262;12.210;2023-07-31T08:01:35;5.18;;;1.35;;
74867;SDS011;63419;42.262;12.210;2023-07-31T08:04:01;4.72;;;1.52;;
74867;SDS011;63419;42.262;12.210;2023-07-31T08:08:55;8.32;;;1.27;;
74867;SDS011;63419;42.262;12.210;2023-07-31T08:11:22;4.38;;;0.98;;
74867;SDS011;63419;42.262;12.210;2023-07-31T08:13:49;4.28;;;1.17;;
74867;SDS011;63419;42.262;12.210;2023-07-31T08:16:15;3.28;;;0.82;;
74867;SDS011;63419;42.262;12.210;2023-07-31T08:18:42;4.80;;;0.75;;
74867;SDS011;63419;42.262;12.210;2023-07-31T08:21:08;4.50;;;1.30;;
74867;SDS011;63419;42.262;12.210;2023-07-31T08:23:35;7.80;;;1.20;;
74867;SDS011;63419;42.262;12.210;2023-07-31T08:26:01;7.03;;;1.58;;
74867;SDS011;63419;42.262;12.210;2023-07-31T08:28:27;4.88;;;1.50;;
74867;SDS011;63419;42.262;12.210;2023-07-31T08:33:20;4.72;;;1.42;;
74867;SDS011;63419;42.262;12.210;2023-07-31T08:35:47;7.30;;;1.13;;
74867;SDS011;63419;42.262;12.210;2023-07-31T08:38:14;4.70;;;1.10;;
74867;SDS011;63419;42.262;12.210;2023-07-31T08:40:40;4.75;;;1.13;;
74867;SDS011;63419;42.262;12.210;2023-07-31T08:43:08;5.60;;;1.13;;
74867;SDS011;63419;42.262;12.210;2023-07-31T08:45:35;5.35;;;1.23;;
74867;SDS011;63419;42.262;12.210;2023-07-31T08:48:04;5.32;;;1.40;;
74867;SDS011;63419;42.262;12.210;2023-07-31T08:50:30;6.03;;;1.17;;
74867;SDS011;63419;42.262;12.210;2023-07-31T08:52:57;5.07;;;1.42;;
74867;SDS011;63419;42.262;12.210;2023-07-31T08:55:24;4.05;;;1.48;;
74867;SDS011;63419;42.262;12.210;2023-07-31T08:57:52;6.72;;;1.20;;
74867;SDS011;63419;42.262;12.210;2023-07-31T09:00:21;4.53;;;1.40;;
74867;SDS011;63419;42.262;12.210;2023-07-31T09:02:54;4.65;;;1.00;;
74867;SDS011;63419;42.262;12.210;2023-07-31T09:05:28;5.90;;;1.50;;
74867;SDS011;63419;42.262;12.210;2023-07-31T09:07:57;6.88;;;1.30;;
74867;SDS011;63419;42.262;12.210;2023-07-31T09:10:23;6.35;;;1.48;;
74867;SDS011;63419;42.262;12.210;2023-07-31T09:12:51;4.00;;;1.23;;
74867;SDS011;63419;42.262;12.210;2023-07-31T09:15:18;5.82;;;1.60;;
74867;SDS011;63419;42.262;12.210;2023-07-31T09:17:47;3.80;;;1.10;;
74867;SDS011;63419;42.262;12.210;2023-07-31T09:20:24;4.30;;;1.30;;
74867;SDS011;63419;42.262;12.210;2023-07-31T09:22:50;4.15;;;1.13;;
74867;SDS011;63419;42.262;12.210;2023-07-31T09:25:18;5.15;;;1.77;;
74867;SDS011;63419;42.262;12.210;2023-07-31T09:27:53;4.25;;;0.65;;
74867;SDS011;63419;42.262;12.210;2023-07-31T09:30:26;4.05;;;1.23;;
74867;SDS011;63419;42.262;12.210;2023-07-31T09:33:01;5.47;;;1.50;;
74867;SDS011;63419;42.262;12.210;2023-07-31T09:35:33;6.35;;;1.30;;
74867;SDS011;63419;42.262;12.210;2023-07-31T09:38:05;3.60;;;1.13;;
74867;SDS011;63419;42.262;12.210;2023-07-31T09:40:36;5.63;;;1.40;;
74867;SDS011;63419;42.262;12.210;2023-07-31T09:43:06;4.20;;;1.10;;
74867;SDS011;63419;42.262;12.210;2023-07-31T09:45:36;4.40;;;1.30;;
74867;SDS011;63419;42.262;12.210;2023-07-31T09:48:07;4.38;;;1.27;;
74867;SDS011;63419;42.262;12.210;2023-07-31T09:50:36;5.05;;;1.27;;
74867;SDS011;63419;42.262;12.210;2023-07-31T09:53:06;6.50;;;1.35;;
74867;SDS011;63419;42.262;12.210;2023-07-31T09:55:34;5.82;;;1.65;;
74867;SDS011;63419;42.262;12.210;2023-07-31T09:58:04;6.72;;;1.35;;
74867;SDS011;63419;42.262;12.210;2023-07-31T10:00:34;3.97;;;1.42;;
74867;SDS011;63419;42.262;12.210;2023-07-31T10:03:06;5.38;;;1.17;;
74867;SDS011;63419;42.262;12.210;2023-07-31T10:05:36;4.85;;;1.30;;
74867;SDS011;63419;42.262;12.210;2023-07-31T10:08:08;6.90;;;1.60;;
74867;SDS011;63419;42.262;12.210;2023-07-31T10:10:42;4.70;;;1.48;;
74867;SDS011;63419;42.262;12.210;2023-07-31T10:13:12;4.38;;;1.40;;
74867;SDS011;63419;42.262;12.210;2023-07-31T10:15:40;3.97;;;1.20;;
74867;SDS011;63419;42.262;12.210;2023-07-31T10:18:08;12.85;;;1.60;;
74867;SDS011;63419;42.262;12.210;2023-07-31T10:20:35;5.57;;;1.90;;
74867;SDS011;63419;42.262;12.210;2023-07-31T10:23:02;4.90;;;1.73;;
74867;SDS011;63419;42.262;12.210;2023-07-31T10:25:29;5.32;;;1.30;;
74867;SDS011;63419;42.262;12.210;2023-07-31T10:27:58;6.25;;;1.40;;
74867;SDS011;63419;42.262;12.210;2023-07-31T10:30:26;6.25;;;1.55;;
74867;SDS011;63419;42.262;12.210;2023-07-31T10:32:57;4.88;;;1.23;;
74867;SDS011;63419;42.262;12.210;2023-07-31T10:35:25;4.05;;;1.10;;
74867;SDS011;63419;42.262;12.210;2023-07-31T10:37:53;5.65;;;1.48;;
74867;SDS011;63419;42.262;12.210;2023-07-31T10:40:26;3.72;;;1.48;;
74867;SDS011;63419;42.262;12.210;2023-07-31T10:42:54;5.07;;;1.73;;
74867;SDS011;63419;42.262;12.210;2023-07-31T10:48:16;5.25;;;1.30;;
74867;SDS011;63419;42.262;12.210;2023-07-31T10:50:47;4.93;;;1.25;;
74867;SDS011;63419;42.262;12.210;2023-07-31T10:53:31;5.07;;;1.30;;
74867;SDS011;63419;42.262;12.210;2023-07-31T10:55:58;4.30;;;1.42;;
74867;SDS011;63419;42.262;12.210;2023-07-31T10:58:27;4.78;;;1.25;;
74867;SDS011;63419;42.262;12.210;2023-07-31T11:00:55;4.00;;;1.17;;
74867;SDS011;63419;42.262;12.210;2023-07-31T11:03:25;4.00;;;1.42;;
74867;SDS011;63419;42.262;12.210;2023-07-31T11:06:06;4.65;;;1.60;;
74867;SDS011;63419;42.262;12.210;2023-07-31T11:08:34;3.97;;;1.20;;
74867;SDS011;63419;42.262;12.210;2023-07-31T11:11:10;4.68;;;1.15;;
74867;SDS011;63419;42.262;12.210;2023-07-31T11:13:41;7.10;;;1.30;;
74867;SDS011;63419;42.262;12.210;2023-07-31T11:16:14;4.30;;;1.23;;
74867;SDS011;63419;42.262;12.210;2023-07-31T11:18:44;5.00;;;1.20;;
74867;SDS011;63419;42.262;12.210;2023-07-31T11:21:14;4.47;;;1.17;;
74867;SDS011;63419;42.262;12.210;2023-07-31T11:24:01;5.60;;;1.60;;
74867;SDS011;63419;42.262;12.210;2023-07-31T11:26:28;4.80;;;1.33;;
74867;SDS011;63419;42.262;12.210;2023-07-31T11:28:56;5.25;;;1.55;;
74867;SDS011;63419;42.262;12.210;2023-07-31T11:31:22;3.67;;;1.23;;
74867;SDS011;63419;42.262;12.210;2023-07-31T11:33:48;3.92;;;1.23;;
74867;SDS011;63419;42.262;12.210;2023-07-31T11:36:16;3.78;;;1.00;;
74867;SDS011;63419;42.262;12.210;2023-07-31T11:38:45;5.47;;;1.50;;
74867;SDS011;63419;42.262;12.210;2023-07-31T11:41:13;4.20;;;1.33;;
74867;SDS011;63419;42.262;12.210;2023-07-31T11:43:41;5.00;;;2.00;;
74867;SDS011;63419;42.262;12.210;2023-07-31T11:46:09;4.70;;;1.58;;
74867;SDS011;63419;42.262;12.210;2023-07-31T11:48:36;5.95;;;1.35;;
74867;SDS011;63419;42.262;12.210;2023-07-31T11:51:04;8.45;;;1.58;;
74867;SDS011;63419;42.262;12.210;2023-07-31T11:56:33;3.90;;;1.42;;
74867;SDS011;63419;42.262;12.210;2023-07-31T11:58:59;6.40;;;1.45;;
74867;SDS011;63419;42.262;12.210;2023-07-31T12:01:29;2.80;;;0.60;;
74867;SDS011;63419;42.262;12.210;2023-07-31T12:03:56;4.68;;;1.13;;
74867;SDS011;63419;42.262;12.210;2023-07-31T12:14:21;4.28;;;1.30;;
74867;SDS011;63419;42.262;12.210;2023-07-31T12:16:54;5.47;;;1.15;;
74867;SDS011;63419;42.262;12.210;2023-07-31T12:19:27;4.80;;;1.58;;
74867;SDS011;63419;42.262;12.210;2023-07-31T12:21:56;9.90;;;1.20;;
74867;SDS011;63419;42.262;12.210;2023-07-31T12:24:26;5.20;;;1.40;;
74867;SDS011;63419;42.262;12.210;2023-07-31T12:26:53;7.90;;;2.35;;
74867;SDS011;63419;42.262;12.210;2023-07-31T12:29:20;5.13;;;1.52;;
74867;SDS011;63419;42.262;12.210;2023-07-31T12:31:48;9.15;;;1.30;;
74867;SDS011;63419;42.262;12.210;2023-07-31T12:34:15;3.15;;;0.90;;
74867;SDS011;63419;42.262;12.210;2023-07-31T12:36:45;4.15;;;1.40;;
74867;SDS011;63419;42.262;12.210;2023-07-31T12:39:14;3.60;;;1.10;;
74867;SDS011;63419;42.262;12.210;2023-07-31T12:41:41;4.03;;;1.55;;
74867;SDS011;63419;42.262;12.210;2023-07-31T12:44:08;4.30;;;1.60;;
74867;SDS011;63419;42.262;12.210;2023-07-31T12:46:53;4.32;;;1.63;;
74867;SDS011;63419;42.262;12.210;2023-07-31T12:49:19;5.85;;;2.58;;
74867;SDS011;63419;42.262;12.210;2023-07-31T12:51:47;4.22;;;1.27;;
74867;SDS011;63419;42.262;12.210;2023-07-31T12:54:13;5.03;;;1.02;;
74867;SDS011;63419;42.262;12.210;2023-07-31T12:56:39;4.07;;;1.10;;
74867;SDS011;63419;42.262;12.210;2023-07-31T12:59:06;3.95;;;1.55;;
74867;SDS011;63419;42.262;12.210;2023-07-31T13:01:32;4.82;;;1.35;;
74867;SDS011;63419;42.262;12.210;2023-07-31T13:03:59;5.20;;;1.40;;
74867;SDS011;63419;42.262;12.210;2023-07-31T13:06:25;7.72;;;1.42;;
74867;SDS011;63419;42.262;12.210;2023-07-31T13:08:51;3.58;;;1.00;;
74867;SDS011;63419;42.262;12.210;2023-07-31T13:11:18;4.90;;;1.02;;
74867;SDS011;63419;42.262;12.210;2023-07-31T13:13:45;9.60;;;1.55;;
74867;SDS011;63419;42.262;12.210;2023-07-31T13:16:11;7.30;;;1.67;;
74867;SDS011;63419;42.262;12.210;2023-07-31T13:18:37;10.55;;;1.52;;
74867;SDS011;63419;42.262;12.210;2023-07-31T13:21:04;6.57;;;1.52;;
74867;SDS011;63419;42.262;12.210;2023-07-31T13:23:30;4.80;;;1.52;;
74867;SDS011;63419;42.262;12.210;2023-07-31T13:25:57;4.13;;;1.67;;
74867;SDS011;63419;42.262;12.210;2023-07-31T13:28:23;4.38;;;1.27;;
74867;SDS011;63419;42.262;12.210;2023-07-31T13:30:50;9.98;;;2.28;;
74867;SDS011;63419;42.262;12.210;2023-07-31T13:33:18;7.78;;;1.52;;
74867;SDS011;63419;42.262;12.210;2023-07-31T13:36:04;6.55;;;1.42;;
74867;SDS011;63419;42.262;12.210;2023-07-31T13:38:30;5.18;;;1.30;;
74867;SDS011;63419;42.262;12.210;2023-07-31T13:41:16;4.75;;;1.67;;
74867;SDS011;63419;42.262;12.210;2023-07-31T13:43:42;4.35;;;1.10;;
74867;SDS011;63419;42.262;12.210;2023-07-31T13:46:09;5.63;;;1.10;;
74867;SDS011;63419;42.262;12.210;2023-07-31T13:48:36;3.70;;;1.30;;
74867;SDS011;63419;42.262;12.210;2023-07-31T13:51:03;4.72;;;1.00;;
74867;SDS011;63419;42.262;12.210;2023-07-31T13:53:29;4.18;;;1.55;;
74867;SDS011;63419;42.262;12.210;2023-07-31T13:55:56;6.47;;;1.95;;
74867;SDS011;63419;42.262;12.210;2023-07-31T13:58:23;9.52;;;1.42;;
74867;SDS011;63419;42.262;12.210;2023-07-31T14:00:50;6.82;;;1.50;;
74867;SDS011;63419;42.262;12.210;2023-07-31T14:03:16;4.45;;;1.13;;
74867;SDS011;63419;42.262;12.210;2023-07-31T14:05:42;3.92;;;1.27;;
74867;SDS011;63419;42.262;12.210;2023-07-31T14:08:09;4.18;;;1.20;;
74867;SDS011;63419;42.262;12.210;2023-07-31T14:10:35;4.85;;;1.30;;
74867;SDS011;63419;42.262;12.210;2023-07-31T14:13:02;5.00;;;1.30;;
74867;SDS011;63419;42.262;12.210;2023-07-31T14:15:28;4.43;;;1.08;;
74867;SDS011;63419;42.262;12.210;2023-07-31T14:17:54;7.05;;;1.38;;
74867;SDS011;63419;42.262;12.210;2023-07-31T14:20:21;4.65;;;1.58;;
74867;SDS011;63419;42.262;12.210;2023-07-31T14:22:47;3.63;;;1.42;;
74867;SDS011;63419;42.262;12.210;2023-07-31T14:25:14;4.63;;;1.63;;
74867;SDS011;63419;42.262;12.210;2023-07-31T14:27:58;5.45;;;1.30;;
74867;SDS011;63419;42.262;12.210;2023-07-31T14:30:25;3.03;;;0.88;;
74867;SDS011;63419;42.262;12.210;2023-07-31T14:32:51;6.05;;;1.90;;
74867;SDS011;63419;42.262;12.210;2023-07-31T14:35:18;4.50;;;1.60;;
74867;SDS011;63419;42.262;12.210;2023-07-31T14:37:44;7.22;;;1.77;;
74867;SDS011;63419;42.262;12.210;2023-07-31T14:40:11;4.28;;;1.42;;
74867;SDS011;63419;42.262;12.210;2023-07-31T14:42:39;8.80;;;1.83;;
74867;SDS011;63419;42.262;12.210;2023-07-31T14:45:06;3.70;;;1.23;;
74867;SDS011;63419;42.262;12.210;2023-07-31T14:47:35;7.60;;;1.52;;
74867;SDS011;63419;42.262;12.210;2023-07-31T14:50:02;6.43;;;1.48;;
74867;SDS011;63419;42.262;12.210;2023-07-31T14:52:28;4.85;;;1.38;;
74867;SDS011;63419;42.262;12.210;2023-07-31T14:54:55;6.75;;;1.65;;
74867;SDS011;63419;42.262;12.210;2023-07-31T14:57:23;7.20;;;2.15;;
74867;SDS011;63419;42.262;12.210;2023-07-31T14:59:51;6.55;;;2.03;;
74867;SDS011;63419;42.262;12.210;2023-07-31T15:02:17;4.68;;;1.25;;
74867;SDS011;63419;42.262;12.210;2023-07-31T15:04:43;5.82;;;2.03;;
74867;SDS011;63419;42.262;12.210;2023-07-31T15:07:10;5.63;;;1.73;;
74867;SDS011;63419;42.262;12.210;2023-07-31T15:09:36;5.35;;;1.52;;
74867;SDS011;63419;42.262;12.210;2023-07-31T15:12:02;6.65;;;1.95;;
74867;SDS011;63419;42.262;12.210;2023-07-31T15:14:28;4.90;;;1.50;;
74867;SDS011;63419;42.262;12.210;2023-07-31T15:16:56;5.88;;;1.70;;
74867;SDS011;63419;42.262;12.210;2023-07-31T15:19:22;4.63;;;1.55;;
74867;SDS011;63419;42.262;12.210;2023-07-31T15:21:49;6.20;;;1.60;;